createdAt,value
2017-05-30T00:00:21.179Z,0
2017-05-30T00:01:01.671Z,0
2017-05-30T00:01:42.158Z,0
2017-05-30T00:02:22.653Z,0
2017-05-30T00:03:03.184Z,0
2017-05-30T00:03:43.676Z,0
2017-05-30T00:04:24.190Z,0
2017-05-30T00:05:04.680Z,0
2017-05-30T00:05:45.187Z,0
2017-05-30T00:06:25.714Z,0
2017-05-30T00:07:06.164Z,0
2017-05-30T00:07:46.650Z,0
2017-05-30T00:08:27.880Z,0
2017-05-30T00:09:10.074Z,0
2017-05-30T00:09:50.560Z,0
2017-05-30T00:10:31.061Z,0
2017-05-30T00:11:11.550Z,0
2017-05-30T00:11:52.015Z,0
2017-05-30T00:12:32.474Z,0
2017-05-30T00:15:00.456Z,0
2017-05-30T00:15:40.917Z,0
2017-05-30T00:16:21.402Z,0
2017-05-30T00:17:01.918Z,0
2017-05-30T00:17:42.442Z,0
2017-05-30T00:18:22.911Z,0
2017-05-30T00:19:03.395Z,0
2017-05-30T00:19:43.889Z,0
2017-05-30T00:20:25.003Z,0
2017-05-30T00:21:05.484Z,0
2017-05-30T00:21:45.976Z,0
2017-05-30T00:22:26.467Z,0
2017-05-30T00:23:06.945Z,0
2017-05-30T00:23:47.406Z,0
2017-05-30T00:24:27.890Z,0
2017-05-30T00:25:08.334Z,0
2017-05-30T00:25:48.780Z,0
2017-05-30T00:26:29.262Z,0
2017-05-30T00:28:27.007Z,0
2017-05-30T00:29:07.417Z,0
2017-05-30T00:29:47.889Z,0
2017-05-30T00:30:28.379Z,0
2017-05-30T00:31:08.878Z,0
2017-05-30T00:31:50.107Z,0
2017-05-30T00:32:30.609Z,0
2017-05-30T00:33:11.107Z,0
2017-05-30T00:33:51.607Z,0
2017-05-30T00:34:32.130Z,0
2017-05-30T00:35:12.570Z,0
2017-05-30T00:35:53.085Z,0
2017-05-30T00:36:34.398Z,0
2017-05-30T00:37:14.887Z,0
2017-05-30T00:37:56.899Z,0
2017-05-30T00:38:37.403Z,0
2017-05-30T00:39:17.941Z,0
2017-05-30T00:39:58.418Z,0
2017-05-30T00:40:38.914Z,0
2017-05-30T00:41:19.391Z,0
2017-05-30T00:42:00.614Z,0
2017-05-30T00:42:41.105Z,0
2017-05-30T00:43:21.610Z,0
2017-05-30T00:44:02.106Z,0
2017-05-30T00:44:42.647Z,0
2017-05-30T00:45:23.091Z,0
2017-05-30T00:46:03.580Z,0
2017-05-30T00:46:44.054Z,0
2017-05-30T00:47:24.538Z,0
2017-05-30T00:48:05.058Z,0
2017-05-30T00:48:46.125Z,0
2017-05-30T00:49:26.609Z,0
2017-05-30T00:50:07.080Z,0
2017-05-30T00:50:47.495Z,0
2017-05-30T00:51:28.672Z,0
2017-05-30T00:52:09.116Z,0
2017-05-30T00:52:49.591Z,0
2017-05-30T00:53:30.037Z,0
2017-05-30T00:54:11.465Z,0
2017-05-30T00:54:51.977Z,0
2017-05-30T00:55:32.472Z,0
2017-05-30T00:56:12.975Z,0
2017-05-30T00:56:54.201Z,0
2017-05-30T00:57:34.702Z,0
2017-05-30T00:58:15.218Z,0
2017-05-30T00:58:55.690Z,0
2017-05-30T00:59:36.190Z,0
2017-05-30T01:00:16.678Z,0
2017-05-30T01:00:57.161Z,0
2017-05-30T01:01:37.672Z,0
2017-05-30T01:02:18.157Z,0
2017-05-30T01:02:58.630Z,0
2017-05-30T01:03:39.124Z,0
2017-05-30T01:04:19.628Z,0
2017-05-30T01:05:00.117Z,0
2017-05-30T01:05:40.574Z,0
2017-05-30T01:06:21.057Z,0
2017-05-30T01:07:01.556Z,0
2017-05-30T01:07:42.049Z,0
2017-05-30T01:08:22.580Z,0
2017-05-30T01:09:03.093Z,0
2017-05-30T01:09:43.592Z,0
2017-05-30T01:10:24.094Z,0
2017-05-30T01:11:04.561Z,0
2017-05-30T01:11:45.016Z,0
2017-05-30T01:13:42.729Z,0
2017-05-30T01:14:23.190Z,0
2017-05-30T01:16:51.146Z,0
2017-05-30T01:17:31.635Z,0
2017-05-30T01:18:12.143Z,0
2017-05-30T01:18:52.633Z,0
2017-05-30T01:19:33.128Z,0
2017-05-30T01:20:13.631Z,0
2017-05-30T01:20:54.109Z,0
2017-05-30T01:21:34.604Z,0
2017-05-30T01:22:15.090Z,0
2017-05-30T01:22:55.593Z,0
2017-05-30T01:23:36.087Z,0
2017-05-30T01:24:16.581Z,0
2017-05-30T01:24:58.064Z,0
2017-05-30T01:25:38.546Z,0
2017-05-30T01:26:19.032Z,0
2017-05-30T01:26:59.537Z,0
2017-05-30T01:27:40.022Z,0
2017-05-30T01:28:20.515Z,0
2017-05-30T01:29:01.006Z,0
2017-05-30T01:29:41.465Z,0
2017-05-30T01:31:39.130Z,0
2017-05-30T01:32:19.619Z,0
2017-05-30T01:33:00.104Z,0
2017-05-30T01:33:40.620Z,0
2017-05-30T01:34:21.094Z,0
2017-05-30T01:35:01.582Z,0
2017-05-30T01:35:42.095Z,0
2017-05-30T01:36:22.572Z,0
2017-05-30T01:37:03.598Z,0
2017-05-30T01:37:44.083Z,0
2017-05-30T01:38:24.547Z,0
2017-05-30T01:39:05.003Z,0
2017-05-30T01:39:45.455Z,0
2017-05-30T01:40:25.931Z,0
2017-05-30T01:41:06.400Z,0
2017-05-30T01:41:46.888Z,0
2017-05-30T01:42:27.390Z,0
2017-05-30T01:43:07.881Z,0
2017-05-30T01:43:48.397Z,0
2017-05-30T01:44:28.881Z,0
2017-05-30T01:45:09.375Z,0
2017-05-30T01:45:49.861Z,0
2017-05-30T01:46:30.366Z,0
2017-05-30T01:47:11.598Z,0
2017-05-30T01:49:39.575Z,0
2017-05-30T01:50:21.037Z,0
2017-05-30T01:51:01.519Z,0
2017-05-30T01:51:42.022Z,0
2017-05-30T01:52:23.109Z,0
2017-05-30T01:53:03.598Z,0
2017-05-30T01:53:44.092Z,0
2017-05-30T01:54:24.595Z,0
2017-05-30T01:55:05.083Z,0
2017-05-30T01:55:45.577Z,0
2017-05-30T01:56:26.060Z,0
2017-05-30T01:57:07.235Z,0
2017-05-30T01:57:48.614Z,0
2017-05-30T01:58:29.926Z,0
2017-05-30T01:59:10.425Z,0
2017-05-30T01:59:50.934Z,0
2017-05-30T02:00:31.411Z,0
2017-05-30T02:01:11.898Z,0
2017-05-30T02:01:52.390Z,0
2017-05-30T02:02:32.887Z,0
2017-05-30T02:03:14.344Z,0
2017-05-30T02:03:54.825Z,0
2017-05-30T02:04:37.036Z,0
2017-05-30T02:05:17.506Z,0
2017-05-30T02:05:57.989Z,0
2017-05-30T02:06:38.486Z,0
2017-05-30T02:07:19.009Z,0
2017-05-30T02:07:59.494Z,0
2017-05-30T02:08:39.984Z,0
2017-05-30T02:09:20.493Z,0
2017-05-30T02:10:00.983Z,0
2017-05-30T02:10:41.506Z,0
2017-05-30T02:11:22.539Z,0
2017-05-30T02:12:03.035Z,0
2017-05-30T02:12:43.508Z,0
2017-05-30T02:13:23.983Z,0
2017-05-30T02:14:04.474Z,0
2017-05-30T02:14:44.975Z,0
2017-05-30T02:15:25.459Z,0
2017-05-30T02:16:05.947Z,0
2017-05-30T02:16:46.448Z,0
2017-05-30T02:17:26.939Z,0
2017-05-30T02:18:07.426Z,0
2017-05-30T02:18:48.618Z,0
2017-05-30T02:19:29.094Z,0
2017-05-30T02:20:10.339Z,0
2017-05-30T02:20:50.829Z,0
2017-05-30T02:21:31.311Z,0
2017-05-30T02:22:11.798Z,0
2017-05-30T02:22:52.289Z,0
2017-05-30T02:23:33.643Z,0
2017-05-30T02:24:14.855Z,0
2017-05-30T02:24:55.349Z,0
2017-05-30T02:25:35.853Z,0
2017-05-30T02:26:17.943Z,0
2017-05-30T02:26:58.419Z,0
2017-05-30T02:27:38.864Z,0
2017-05-30T02:28:20.047Z,0
2017-05-30T02:30:32.812Z,0
2017-05-30T02:31:13.297Z,0
2017-05-30T02:31:53.781Z,0
2017-05-30T02:32:35.995Z,0
2017-05-30T02:33:18.009Z,0
2017-05-30T02:33:58.505Z,0
2017-05-30T02:34:38.993Z,0
2017-05-30T02:35:19.485Z,0
2017-05-30T02:35:59.991Z,0
2017-05-30T02:36:40.476Z,0
2017-05-30T02:37:20.977Z,0
2017-05-30T02:38:02.276Z,0
2017-05-30T02:38:42.763Z,0
2017-05-30T02:39:23.999Z,0
2017-05-30T02:40:04.496Z,0
2017-05-30T02:40:44.975Z,0
2017-05-30T02:41:25.469Z,0
2017-05-30T02:42:05.960Z,0
2017-05-30T02:42:46.450Z,0
2017-05-30T02:43:26.939Z,0
2017-05-30T02:44:07.434Z,0
2017-05-30T02:44:47.910Z,0
2017-05-30T02:45:28.353Z,0
2017-05-30T02:46:08.816Z,0
2017-05-30T02:46:49.259Z,0
2017-05-30T02:48:46.906Z,0
2017-05-30T02:49:27.418Z,0
2017-05-30T02:50:08.885Z,0
2017-05-30T02:50:49.375Z,0
2017-05-30T02:53:22.391Z,0
2017-05-30T02:54:02.872Z,0
2017-05-30T02:54:43.376Z,0
2017-05-30T02:55:23.865Z,0
2017-05-30T02:56:04.349Z,0
2017-05-30T02:56:44.848Z,4
2017-05-30T02:57:25.344Z,4
2017-05-30T02:58:05.846Z,4
2017-05-30T02:58:46.356Z,4
2017-05-30T02:59:27.609Z,0
2017-05-30T03:00:08.103Z,4
2017-05-30T03:00:48.599Z,4
2017-05-30T03:01:29.105Z,4
2017-05-30T03:02:10.486Z,8
2017-05-30T03:02:50.981Z,8
2017-05-30T03:03:31.437Z,4
2017-05-30T03:04:11.888Z,8
2017-05-30T03:04:52.363Z,8
2017-05-30T03:05:32.824Z,12
2017-05-30T03:06:13.337Z,8
2017-05-30T03:06:53.832Z,12
2017-05-30T03:07:34.972Z,12
2017-05-30T03:08:15.446Z,12
2017-05-30T03:08:56.594Z,16
2017-05-30T03:09:37.053Z,16
2017-05-30T03:12:04.991Z,20
2017-05-30T03:12:45.473Z,24
2017-05-30T03:13:25.965Z,28
2017-05-30T03:14:06.981Z,28
2017-05-30T03:14:48.211Z,32
2017-05-30T03:15:28.713Z,32
2017-05-30T03:16:09.167Z,36
2017-05-30T03:16:49.690Z,40
2017-05-30T03:17:30.191Z,40
2017-05-30T03:18:10.662Z,44
2017-05-30T03:18:51.139Z,48
2017-05-30T03:19:31.606Z,52
2017-05-30T03:20:12.872Z,56
2017-05-30T03:20:53.345Z,60
2017-05-30T03:21:33.848Z,64
2017-05-30T03:22:14.284Z,68
2017-05-30T03:22:54.779Z,68
2017-05-30T03:23:35.242Z,72
2017-05-30T03:24:15.717Z,76
2017-05-30T03:24:56.192Z,80
2017-05-30T03:25:36.689Z,84
2017-05-30T03:26:17.183Z,88
2017-05-30T03:28:50.829Z,104
2017-05-30T03:29:31.327Z,112
2017-05-30T03:30:12.326Z,116
2017-05-30T03:30:53.530Z,120
2017-05-30T03:31:34.017Z,128
2017-05-30T03:32:14.513Z,132
2017-05-30T03:32:55.003Z,136
2017-05-30T03:33:35.490Z,144
2017-05-30T03:34:15.993Z,148
2017-05-30T03:34:56.483Z,156
2017-05-30T03:35:37.003Z,164
2017-05-30T03:36:17.488Z,168
2017-05-30T03:36:57.983Z,176
2017-05-30T03:37:39.331Z,184
2017-05-30T03:38:19.798Z,192
2017-05-30T03:39:00.272Z,200
2017-05-30T03:41:28.231Z,228
2017-05-30T03:42:08.704Z,236
2017-05-30T03:42:49.187Z,240
2017-05-30T03:43:29.668Z,248
2017-05-30T03:44:10.158Z,260
2017-05-30T03:44:50.625Z,264
2017-05-30T03:45:31.077Z,276
2017-05-30T03:47:28.766Z,296
2017-05-30T03:48:09.285Z,304
2017-05-30T03:48:50.517Z,312
2017-05-30T03:49:31.004Z,324
2017-05-30T03:50:11.489Z,332
2017-05-30T03:50:51.999Z,340
2017-05-30T03:51:32.471Z,352
2017-05-30T03:52:12.964Z,360
2017-05-30T03:52:53.466Z,368
2017-05-30T03:53:33.955Z,384
2017-05-30T03:54:14.448Z,392
2017-05-30T03:54:54.942Z,408
2017-05-30T03:55:35.442Z,424
2017-05-30T03:56:15.939Z,436
2017-05-30T03:56:57.440Z,456
2017-05-30T03:57:37.926Z,476
2017-05-30T03:58:18.422Z,492
2017-05-30T03:58:58.911Z,516
2017-05-30T03:59:39.405Z,528
2017-05-30T04:00:19.910Z,544
2017-05-30T04:01:00.395Z,560
2017-05-30T04:01:41.531Z,568
2017-05-30T04:02:22.019Z,576
2017-05-30T04:03:03.304Z,592
2017-05-30T04:03:43.800Z,600
2017-05-30T04:04:24.290Z,612
2017-05-30T04:05:04.776Z,620
2017-05-30T04:05:45.268Z,632
2017-05-30T04:06:25.782Z,640
2017-05-30T04:07:06.266Z,648
2017-05-30T04:07:46.737Z,656
2017-05-30T04:08:27.218Z,668
2017-05-30T04:09:07.673Z,680
2017-05-30T04:11:20.363Z,708
2017-05-30T04:12:00.863Z,720
2017-05-30T04:12:41.374Z,720
2017-05-30T04:13:22.809Z,728
2017-05-30T04:14:03.265Z,728
2017-05-30T04:14:43.774Z,728
2017-05-30T04:15:24.255Z,724
2017-05-30T04:16:04.755Z,720
2017-05-30T04:16:45.224Z,716
2017-05-30T04:17:25.708Z,716
2017-05-30T04:18:06.190Z,716
2017-05-30T04:18:46.676Z,716
2017-05-30T04:19:27.180Z,724
2017-05-30T04:20:07.662Z,736
2017-05-30T04:20:48.154Z,752
2017-05-30T04:21:28.654Z,768
2017-05-30T04:22:09.135Z,788
2017-05-30T04:22:49.634Z,808
2017-05-30T04:23:30.111Z,832
2017-05-30T04:24:10.596Z,860
2017-05-30T04:24:51.689Z,896
2017-05-30T04:25:32.180Z,940
2017-05-30T04:26:12.686Z,984
2017-05-30T04:26:53.167Z,1028
2017-05-30T04:27:33.641Z,1064
2017-05-30T04:28:14.131Z,1096
2017-05-30T04:28:54.639Z,1124
2017-05-30T04:29:35.135Z,1152
2017-05-30T04:30:15.617Z,1172
2017-05-30T04:30:56.112Z,1184
2017-05-30T04:31:36.604Z,1204
2017-05-30T04:32:17.070Z,1232
2017-05-30T04:32:57.572Z,1252
2017-05-30T04:33:38.054Z,1268
2017-05-30T04:34:18.536Z,1276
2017-05-30T04:34:59.042Z,1288
2017-05-30T04:35:39.531Z,1292
2017-05-30T04:36:20.013Z,1292
2017-05-30T04:37:00.523Z,1280
2017-05-30T04:37:41.009Z,1260
2017-05-30T04:38:21.502Z,1244
2017-05-30T04:39:01.993Z,1224
2017-05-30T04:39:42.473Z,1208
2017-05-30T04:40:23.800Z,1188
2017-05-30T04:41:04.297Z,1164
2017-05-30T04:41:44.779Z,1148
2017-05-30T04:42:25.275Z,1132
2017-05-30T04:43:05.764Z,1128
2017-05-30T04:43:46.886Z,1124
2017-05-30T04:44:27.377Z,1128
2017-05-30T04:45:07.900Z,1136
2017-05-30T04:45:49.879Z,1152
2017-05-30T04:46:30.379Z,1172
2017-05-30T04:47:11.619Z,1200
2017-05-30T04:47:52.115Z,1224
2017-05-30T04:48:32.615Z,1252
2017-05-30T04:49:13.154Z,1276
2017-05-30T04:49:53.659Z,1300
2017-05-30T04:50:34.799Z,1328
2017-05-30T04:51:15.298Z,1356
2017-05-30T04:51:55.785Z,1384
2017-05-30T04:52:36.259Z,1416
2017-05-30T04:53:16.768Z,1444
2017-05-30T04:53:57.249Z,1472
2017-05-30T04:54:37.727Z,1496
2017-05-30T04:55:19.717Z,1532
2017-05-30T04:56:00.189Z,1548
2017-05-30T04:56:40.699Z,1560
2017-05-30T04:57:21.177Z,1568
2017-05-30T04:58:01.629Z,1572
2017-05-30T04:58:42.088Z,1580
2017-05-30T04:59:22.629Z,1588
2017-05-30T05:00:03.089Z,1608
2017-05-30T05:00:44.406Z,1628
2017-05-30T05:01:24.892Z,1656
2017-05-30T05:02:05.394Z,1688
2017-05-30T05:02:46.601Z,1724
2017-05-30T05:03:27.101Z,1752
2017-05-30T05:04:09.227Z,1772
2017-05-30T05:04:49.716Z,1788
2017-05-30T05:05:30.214Z,1800
2017-05-30T05:06:11.619Z,1808
2017-05-30T05:06:52.105Z,1804
2017-05-30T05:07:32.585Z,1796
2017-05-30T05:09:45.298Z,1764
2017-05-30T05:10:25.777Z,1756
2017-05-30T05:11:06.277Z,1748
2017-05-30T05:11:46.765Z,1740
2017-05-30T05:12:27.872Z,1728
2017-05-30T05:13:08.378Z,1712
2017-05-30T05:13:48.857Z,1696
2017-05-30T05:14:29.351Z,1680
2017-05-30T05:15:09.855Z,1656
2017-05-30T05:15:50.331Z,1636
2017-05-30T05:16:31.713Z,1616
2017-05-30T05:17:12.206Z,1596
2017-05-30T05:17:52.708Z,1584
2017-05-30T05:18:33.256Z,1576
2017-05-30T05:19:14.513Z,1572
2017-05-30T05:19:54.998Z,1580
2017-05-30T05:20:35.481Z,1588
2017-05-30T05:21:15.955Z,1604
2017-05-30T05:21:56.461Z,1612
2017-05-30T05:22:36.964Z,1620
2017-05-30T05:23:17.437Z,1636
2017-05-30T05:23:57.916Z,1636
2017-05-30T05:24:38.417Z,1644
2017-05-30T05:25:18.930Z,1648
2017-05-30T05:26:00.384Z,1656
2017-05-30T05:26:40.874Z,1652
2017-05-30T05:27:21.402Z,1656
2017-05-30T05:28:01.903Z,1652
2017-05-30T05:28:42.412Z,1652
2017-05-30T05:29:22.953Z,1648
2017-05-30T05:30:03.434Z,1648
2017-05-30T05:30:43.928Z,1656
2017-05-30T05:31:24.419Z,1668
2017-05-30T05:32:04.905Z,1680
2017-05-30T05:34:22.762Z,1764
2017-05-30T05:35:03.217Z,1800
2017-05-30T05:35:43.717Z,1844
2017-05-30T05:36:24.134Z,1896
2017-05-30T05:37:04.590Z,1948
2017-05-30T05:37:45.029Z,1992
2017-05-30T05:38:25.460Z,2032
2017-05-30T05:39:06.012Z,2080
2017-05-30T05:39:46.483Z,2136
2017-05-30T05:40:26.956Z,2188
2017-05-30T05:41:07.395Z,2252
2017-05-30T05:41:47.844Z,2316
2017-05-30T05:42:28.275Z,2380
2017-05-30T05:43:08.795Z,2444
2017-05-30T05:43:49.270Z,2504
2017-05-30T05:44:29.735Z,2568
2017-05-30T05:45:10.197Z,2628
2017-05-30T05:45:50.640Z,2684
2017-05-30T05:46:31.124Z,2736
2017-05-30T05:47:11.509Z,2792
2017-05-30T05:47:51.976Z,2844
2017-05-30T05:48:32.500Z,2884
2017-05-30T05:49:13.079Z,2932
2017-05-30T05:49:53.486Z,2972
2017-05-30T05:50:33.949Z,3000
2017-05-30T05:51:14.360Z,3016
2017-05-30T05:51:54.924Z,3012
2017-05-30T05:52:35.476Z,2992
2017-05-30T05:53:16.120Z,2952
2017-05-30T05:53:56.659Z,2896
2017-05-30T05:54:37.173Z,2824
2017-05-30T05:55:17.717Z,2752
2017-05-30T05:55:58.266Z,2684
2017-05-30T05:56:38.773Z,2624
2017-05-30T05:57:19.361Z,2564
2017-05-30T05:57:59.820Z,2508
2017-05-30T05:58:40.272Z,2460
2017-05-30T05:59:20.721Z,2428
2017-05-30T06:00:01.202Z,2396
2017-05-30T06:00:41.730Z,2368
2017-05-30T06:01:22.249Z,2344
2017-05-30T06:02:02.795Z,2324
2017-05-30T06:02:43.319Z,2316
2017-05-30T06:03:23.793Z,2304
2017-05-30T06:04:04.323Z,2296
2017-05-30T06:04:44.818Z,2288
2017-05-30T06:05:25.365Z,2284
2017-05-30T06:06:05.909Z,2276
2017-05-30T06:06:46.477Z,2264
2017-05-30T06:07:26.989Z,2256
2017-05-30T06:08:07.521Z,2248
2017-05-30T06:08:48.095Z,2240
2017-05-30T06:10:45.833Z,2276
2017-05-30T06:11:26.395Z,2304
2017-05-30T06:12:06.904Z,2340
2017-05-30T06:12:47.413Z,2376
2017-05-30T06:13:27.952Z,2424
2017-05-30T06:14:08.509Z,2472
2017-05-30T06:14:49.080Z,2528
2017-05-30T06:15:29.627Z,2588
2017-05-30T06:16:11.650Z,2656
2017-05-30T06:16:52.164Z,2724
2017-05-30T06:17:32.652Z,2792
2017-05-30T06:18:13.152Z,2852
2017-05-30T06:18:53.642Z,2916
2017-05-30T06:19:34.121Z,2972
2017-05-30T06:20:14.646Z,3028
2017-05-30T06:20:55.154Z,3088
2017-05-30T06:21:36.579Z,3144
2017-05-30T06:22:17.113Z,3204
2017-05-30T06:22:57.623Z,3264
2017-05-30T06:23:38.671Z,3336
2017-05-30T06:24:19.183Z,3344
2017-05-30T06:24:59.749Z,3492
2017-05-30T06:25:40.293Z,3572
2017-05-30T06:26:21.727Z,3660
2017-05-30T06:27:02.227Z,3760
2017-05-30T06:27:42.759Z,3856
2017-05-30T06:28:24.167Z,3872
2017-05-30T06:29:06.135Z,4008
2017-05-30T06:29:46.633Z,4044
2017-05-30T06:30:27.158Z,4072
2017-05-30T06:31:07.639Z,4096
2017-05-30T06:31:48.130Z,4124
2017-05-30T06:32:28.632Z,4136
2017-05-30T06:33:09.141Z,4124
2017-05-30T06:33:49.654Z,4108
2017-05-30T06:34:30.197Z,4092
2017-05-30T06:35:10.676Z,4072
2017-05-30T06:35:51.204Z,4068
2017-05-30T06:36:31.734Z,4068
2017-05-30T06:37:13.063Z,4076
2017-05-30T06:37:53.553Z,4088
2017-05-30T06:38:34.045Z,4108
2017-05-30T06:39:14.542Z,4128
2017-05-30T06:39:55.027Z,4136
2017-05-30T06:40:35.532Z,4144
2017-05-30T06:41:16.006Z,4156
2017-05-30T06:41:56.503Z,4176
2017-05-30T06:42:36.979Z,4204
2017-05-30T06:43:17.441Z,4224
2017-05-30T06:43:57.988Z,4260
2017-05-30T06:46:16.100Z,4324
2017-05-30T06:46:56.643Z,4336
2017-05-30T06:47:38.085Z,4348
2017-05-30T06:48:18.563Z,4356
2017-05-30T06:48:59.078Z,4352
2017-05-30T06:49:39.551Z,4336
2017-05-30T06:50:20.052Z,4340
2017-05-30T06:51:01.444Z,4344
2017-05-30T06:51:41.925Z,4344
2017-05-30T06:54:15.487Z,4324
2017-05-30T06:54:56.003Z,4324
2017-05-30T06:55:37.482Z,4340
2017-05-30T06:56:17.996Z,4336
2017-05-30T07:00:30.269Z,4036
2017-05-30T07:01:11.709Z,4028
2017-05-30T07:01:52.190Z,4024
2017-05-30T07:02:32.685Z,4044
2017-05-30T07:03:13.152Z,4072
2017-05-30T07:03:53.646Z,4096
2017-05-30T07:04:34.164Z,4124
2017-05-30T07:05:14.631Z,4176
2017-05-30T07:05:55.140Z,4248
2017-05-30T07:06:35.624Z,4372
2017-05-30T07:07:16.102Z,4528
2017-05-30T07:07:56.633Z,4704
2017-05-30T07:08:37.119Z,4888
2017-05-30T07:09:17.666Z,5056
2017-05-30T07:09:58.730Z,5184
2017-05-30T07:10:40.035Z,5316
2017-05-30T07:11:20.561Z,5432
2017-05-30T07:12:01.019Z,5580
2017-05-30T07:12:41.509Z,5764
2017-05-30T07:13:22.014Z,6004
2017-05-30T07:14:03.317Z,6260
2017-05-30T07:14:43.817Z,6552
2017-05-30T07:15:24.256Z,6868
2017-05-30T07:16:04.726Z,7204
2017-05-30T07:16:45.236Z,7628
2017-05-30T07:17:25.709Z,8124
2017-05-30T07:18:06.929Z,8628
2017-05-30T07:18:47.440Z,9072
2017-05-30T07:19:27.923Z,9436
2017-05-30T07:20:08.396Z,9812
2017-05-30T07:20:48.848Z,10312
2017-05-30T07:21:30.299Z,10756
2017-05-30T07:22:10.759Z,11020
2017-05-30T07:22:51.261Z,11348
2017-05-30T07:23:31.779Z,11684
2017-05-30T07:24:13.056Z,11952
2017-05-30T07:24:53.514Z,12184
2017-05-30T07:25:34.015Z,12436
2017-05-30T07:26:14.478Z,12608
2017-05-30T07:26:55.078Z,12716
2017-05-30T07:27:35.462Z,12804
2017-05-30T07:28:16.932Z,12924
2017-05-30T07:28:57.938Z,12988
2017-05-30T07:29:38.409Z,13112
2017-05-30T07:30:19.818Z,13316
2017-05-30T07:31:00.317Z,13556
2017-05-30T07:31:40.875Z,13824
2017-05-30T07:32:21.346Z,14072
2017-05-30T07:33:01.840Z,14360
2017-05-30T07:33:43.226Z,14516
2017-05-30T07:34:24.677Z,14668
2017-05-30T07:35:05.289Z,14780
2017-05-30T07:35:45.773Z,14796
2017-05-30T07:37:43.700Z,14372
2017-05-30T07:38:24.281Z,14100
2017-05-30T07:39:04.827Z,13880
2017-05-30T07:39:45.344Z,13668
2017-05-30T07:40:25.810Z,13488
2017-05-30T07:41:06.298Z,13596
2017-05-30T07:41:46.797Z,13900
2017-05-30T07:42:27.274Z,14052
2017-05-30T07:43:07.720Z,14076
2017-05-30T07:45:35.714Z,11528
2017-05-30T07:46:16.175Z,11176
2017-05-30T07:46:56.721Z,10812
2017-05-30T07:47:37.299Z,10520
2017-05-30T07:48:17.876Z,10340
2017-05-30T07:48:58.361Z,10176
2017-05-30T07:49:38.877Z,9936
2017-05-30T07:50:19.487Z,9676
2017-05-30T07:51:00.036Z,9436
2017-05-30T07:52:57.731Z,9284
2017-05-30T07:53:38.172Z,9512
2017-05-30T07:56:12.095Z,10808
2017-05-30T07:56:52.585Z,11348
2017-05-30T07:57:33.110Z,12020
2017-05-30T07:58:14.572Z,12820
2017-05-30T07:58:55.099Z,13620
2017-05-30T07:59:36.223Z,14060
2017-05-30T08:00:16.642Z,14256
2017-05-30T08:00:57.167Z,14392
2017-05-30T08:01:37.681Z,14424
2017-05-30T08:02:18.194Z,14524
2017-05-30T08:02:58.678Z,14540
2017-05-30T08:03:39.148Z,14468
2017-05-30T08:04:19.688Z,14456
2017-05-30T08:05:00.221Z,14516
2017-05-30T08:05:40.712Z,14660
2017-05-30T08:06:21.224Z,14932
2017-05-30T08:07:01.709Z,15284
2017-05-30T08:07:42.161Z,15576
2017-05-30T08:08:22.645Z,16212
2017-05-30T08:09:03.091Z,16612
2017-05-30T08:12:55.723Z,27264
2017-05-30T08:13:37.497Z,27968
2017-05-30T08:14:18.280Z,24320
2017-05-30T08:14:58.937Z,23808
2017-05-30T08:15:39.494Z,21760
2017-05-30T08:16:20.076Z,29504
2017-05-30T08:17:00.538Z,22144
2017-05-30T08:17:40.963Z,19168
2017-05-30T08:18:21.524Z,18368
2017-05-30T08:19:02.242Z,18400
2017-05-30T08:19:42.693Z,18496
2017-05-30T08:20:23.141Z,18560
2017-05-30T08:21:03.762Z,18400
2017-05-30T08:21:44.219Z,17792
2017-05-30T08:22:25.254Z,17028
2017-05-30T08:23:05.672Z,17156
2017-05-30T08:23:46.165Z,17284
2017-05-30T08:24:26.652Z,17760
2017-05-30T08:25:07.147Z,17760
2017-05-30T08:25:48.226Z,18016
2017-05-30T08:26:29.293Z,18208
2017-05-30T08:27:09.439Z,18432
2017-05-30T08:27:50.990Z,17760
2017-05-30T08:28:31.491Z,17032
2017-05-30T08:29:11.943Z,16592
2017-05-30T08:29:52.730Z,16292
2017-05-30T08:30:33.281Z,16188
2017-05-30T08:31:13.769Z,16240
2017-05-30T08:31:54.325Z,15972
2017-05-30T08:32:34.980Z,16244
2017-05-30T08:33:23.397Z,16192
2017-05-30T08:34:06.715Z,15948
2017-05-30T08:34:48.451Z,16144
2017-05-30T08:35:31.568Z,16316
2017-05-30T08:36:15.062Z,16404
2017-05-30T08:36:58.335Z,16260
2017-05-30T08:37:45.596Z,15940
2017-05-30T08:38:26.746Z,15720
2017-05-30T08:39:12.890Z,15628
2017-05-30T08:39:55.272Z,15604
2017-05-30T08:40:41.657Z,15568
2017-05-30T08:42:56.006Z,15720
2017-05-30T08:43:36.570Z,15764
2017-05-30T08:44:17.002Z,15904
2017-05-30T08:44:57.520Z,16088
2017-05-30T08:45:37.985Z,16452
2017-05-30T08:46:18.486Z,16756
2017-05-30T08:46:58.970Z,17184
2017-05-30T08:47:39.512Z,17984
2017-05-30T08:48:20.027Z,18720
2017-05-30T08:49:00.554Z,19584
2017-05-30T08:49:41.718Z,22688
2017-05-30T08:50:22.323Z,28256
2017-05-30T08:51:02.821Z,27456
2017-05-30T08:51:43.319Z,30720
2017-05-30T08:52:23.813Z,23776
2017-05-30T08:53:04.332Z,24128
2017-05-30T08:53:44.829Z,25888
2017-05-30T08:54:25.297Z,27168
2017-05-30T08:55:05.804Z,26720
2017-05-30T08:55:46.290Z,28288
2017-05-30T08:56:27.715Z,38400
2017-05-30T08:57:08.207Z,35360
2017-05-30T08:57:49.397Z,77984
2017-05-30T08:58:29.893Z,94880
2017-05-30T08:59:10.351Z,54688
2017-05-30T08:59:50.871Z,76960
2017-05-30T09:00:31.323Z,34976
2017-05-30T09:01:11.883Z,40192
2017-05-30T09:01:53.206Z,34048
2017-05-30T09:02:33.767Z,34496
2017-05-30T09:03:14.313Z,51584
2017-05-30T09:03:54.892Z,86048
2017-05-30T09:04:36.316Z,111616
2017-05-30T09:05:16.816Z,74464
2017-05-30T09:05:57.271Z,62528
2017-05-30T09:06:37.790Z,33216
2017-05-30T09:09:06.329Z,28000
2017-05-30T09:09:46.820Z,33216
2017-05-30T09:10:27.244Z,52736
2017-05-30T09:11:07.772Z,36864
2017-05-30T09:11:48.246Z,34752
2017-05-30T09:12:28.739Z,40448
2017-05-30T09:13:09.286Z,34272
2017-05-30T09:13:49.825Z,28416
2017-05-30T09:14:30.282Z,56608
2017-05-30T09:15:10.743Z,53792
2017-05-30T09:15:51.230Z,29696
2017-05-30T09:16:31.721Z,28032
2017-05-30T09:17:12.214Z,31136
2017-05-30T09:17:52.853Z,29024
2017-05-30T09:18:33.984Z,28096
2017-05-30T09:19:14.605Z,32448
2017-05-30T09:19:56.232Z,31872
2017-05-30T09:20:36.855Z,30912
2017-05-30T09:21:17.365Z,24608
2017-05-30T09:21:58.097Z,24128
2017-05-30T09:22:38.544Z,25664
2017-05-30T09:23:19.086Z,32992
2017-05-30T09:23:59.662Z,27392
2017-05-30T09:24:40.190Z,23968
2017-05-30T09:25:20.752Z,23296
2017-05-30T09:26:01.257Z,23360
2017-05-30T09:26:41.788Z,24416
2017-05-30T09:27:22.302Z,20928
2017-05-30T09:28:03.504Z,20448
2017-05-30T09:28:44.036Z,20288
2017-05-30T09:29:24.601Z,20128
2017-05-30T09:30:05.169Z,19968
2017-05-30T09:30:45.699Z,19808
2017-05-30T09:31:26.184Z,19808
2017-05-30T09:32:06.719Z,19776
2017-05-30T09:32:48.139Z,20000
2017-05-30T09:33:29.513Z,20256
2017-05-30T09:34:10.133Z,20672
2017-05-30T09:34:50.706Z,20864
2017-05-30T09:35:31.223Z,20992
2017-05-30T09:36:11.707Z,21536
2017-05-30T09:36:52.234Z,23136
2017-05-30T09:37:32.726Z,29088
2017-05-30T09:38:13.257Z,27200
2017-05-30T09:38:53.779Z,27680
2017-05-30T09:39:34.295Z,35616
2017-05-30T09:40:15.713Z,39648
2017-05-30T09:40:56.245Z,38528
2017-05-30T09:41:36.801Z,30528
2017-05-30T09:42:17.186Z,33344
2017-05-30T09:42:57.670Z,33824
2017-05-30T09:43:38.709Z,34784
2017-05-30T09:44:19.205Z,34048
2017-05-30T09:44:59.714Z,33280
2017-05-30T09:45:40.202Z,33376
2017-05-30T09:46:20.663Z,26272
2017-05-30T09:48:33.413Z,30464
2017-05-30T09:49:13.894Z,25504
2017-05-30T09:49:54.382Z,27424
2017-05-30T09:50:35.401Z,27712
2017-05-30T09:51:15.905Z,27424
2017-05-30T09:51:56.424Z,22368
2017-05-30T09:52:36.936Z,20544
2017-05-30T09:53:17.423Z,24896
2017-05-30T09:53:57.899Z,25280
2017-05-30T09:54:38.409Z,25088
2017-05-30T09:55:18.916Z,24192
2017-05-30T09:55:59.382Z,23360
2017-05-30T09:56:40.032Z,22560
2017-05-30T09:57:20.567Z,21824
2017-05-30T09:58:01.094Z,21280
2017-05-30T09:58:42.351Z,20832
2017-05-30T09:59:22.865Z,20448
2017-05-30T10:00:03.384Z,20128
2017-05-30T10:00:44.416Z,19904
2017-05-30T10:01:24.892Z,19872
2017-05-30T10:02:05.390Z,19744
2017-05-30T10:02:45.872Z,19520
2017-05-30T10:03:26.375Z,19020
2017-05-30T10:04:06.890Z,18704
2017-05-30T10:04:47.388Z,18160